<?xml version="1.0" encoding="UTF-8" standalone="no" ?>
<gpx xmlns="http://www.topografix.com/GPX/1/1" xmlns:xsi="http://www.w3.org/2001/XMLSchema-instance" xsi:schemaLocation="http://www.topografix.com/GPX/1/1 http://www.topografix.com/GPX/1/1/gpx.xsd" version="1.1" creator="VisuGPX - https://www.visugpx.com">
  <metadata>
    <name>Arboux</name>
    <desc><![CDATA[Arboux Costubague Rouas Peyrefiche Beaulieu]]></desc>
  </metadata>
  <wpt lat="44.10104" lon="3.44793">
    <ele>885.4934082</ele>
    <name><![CDATA[001]]></name>
    <desc><![CDATA[12-SEP-12 10:44:13]]></desc>
    <cmt><![CDATA[12-SEP-12 10:44:13]]></cmt>
  </wpt>
  <wpt lat="44.10105" lon="3.44795">
    <ele>887.4160156</ele>
    <name><![CDATA[002]]></name>
    <desc><![CDATA[12-SEP-12 10:44:19]]></desc>
    <cmt><![CDATA[12-SEP-12 10:44:19]]></cmt>
  </wpt>
  <trk>
    <name><![CDATA[ACTIVE LOG 006]]></name>
    <trkseg>
      <trkpt lat="44.04432" lon="3.63565">
        <ele>702.861084</ele>
        <time>2012-10-09T10:57:00Z</time>
      </trkpt>
      <trkpt lat="44.04452" lon="3.63676">
        <ele>710.5515137</ele>
        <time>2012-10-09T10:59:48Z</time>
      </trkpt>
      <trkpt lat="44.04509" lon="3.63624">
        <ele>717.2810059</ele>
        <time>2012-10-09T11:01:45Z</time>
      </trkpt>
      <trkpt lat="44.04571" lon="3.63638">
        <ele>720.6455078</ele>
        <time>2012-10-09T11:03:33Z</time>
      </trkpt>
      <trkpt lat="44.04597" lon="3.63672">
        <ele>718.2421875</ele>
        <time>2012-10-09T11:05:42Z</time>
      </trkpt>
      <trkpt lat="44.04563" lon="3.63629">
        <ele>719.2036133</ele>
        <time>2012-10-09T11:07:06Z</time>
      </trkpt>
      <trkpt lat="44.04514" lon="3.63692">
        <ele>720.1647949</ele>
        <time>2012-10-09T11:08:22Z</time>
      </trkpt>
      <trkpt lat="44.04481" lon="3.63781">
        <ele>713.4355469</ele>
        <time>2012-10-09T11:09:32Z</time>
      </trkpt>
      <trkpt lat="44.04431" lon="3.63857">
        <ele>712.954834</ele>
        <time>2012-10-09T11:10:44Z</time>
      </trkpt>
      <trkpt lat="44.04397" lon="3.63944">
        <ele>711.0322266</ele>
        <time>2012-10-09T11:12:38Z</time>
      </trkpt>
      <trkpt lat="44.04343" lon="3.63976">
        <ele>707.6677246</ele>
        <time>2012-10-09T11:13:45Z</time>
      </trkpt>
      <trkpt lat="44.04288" lon="3.64046">
        <ele>702.3803711</ele>
        <time>2012-10-09T11:15:43Z</time>
      </trkpt>
      <trkpt lat="44.04229" lon="3.64097">
        <ele>704.3032227</ele>
        <time>2012-10-09T11:17:02Z</time>
      </trkpt>
      <trkpt lat="44.04189" lon="3.64165">
        <ele>693.2478027</ele>
        <time>2012-10-09T11:20:47Z</time>
      </trkpt>
      <trkpt lat="44.04124" lon="3.64222">
        <ele>680.7507324</ele>
        <time>2012-10-09T11:23:50Z</time>
      </trkpt>
      <trkpt lat="44.04078" lon="3.64247">
        <ele>670.1762695</ele>
        <time>2012-10-09T11:25:11Z</time>
      </trkpt>
      <trkpt lat="44.04011" lon="3.64194">
        <ele>672.098877</ele>
        <time>2012-10-09T11:27:15Z</time>
      </trkpt>
      <trkpt lat="44.03939" lon="3.64215">
        <ele>685.557373</ele>
        <time>2012-10-09T11:28:38Z</time>
      </trkpt>
      <trkpt lat="44.03884" lon="3.64276">
        <ele>691.3251953</ele>
        <time>2012-10-09T11:30:22Z</time>
      </trkpt>
      <trkpt lat="44.03834" lon="3.64353">
        <ele>690.8444824</ele>
        <time>2012-10-09T11:34:12Z</time>
      </trkpt>
      <trkpt lat="44.03795" lon="3.64442">
        <ele>693.7285156</ele>
        <time>2012-10-09T11:35:46Z</time>
      </trkpt>
      <trkpt lat="44.03815" lon="3.64537">
        <ele>699.9770508</ele>
        <time>2012-10-09T11:37:28Z</time>
      </trkpt>
      <trkpt lat="44.03836" lon="3.64643">
        <ele>704.7836914</ele>
        <time>2012-10-09T11:39:33Z</time>
      </trkpt>
      <trkpt lat="44.03843" lon="3.64735">
        <ele>708.1484375</ele>
        <time>2012-10-09T11:41:11Z</time>
      </trkpt>
      <trkpt lat="44.03779" lon="3.6481">
        <ele>706.7062988</ele>
        <time>2012-10-09T11:42:49Z</time>
      </trkpt>
      <trkpt lat="44.03694" lon="3.64796">
        <ele>703.3417969</ele>
        <time>2012-10-09T11:44:25Z</time>
      </trkpt>
      <trkpt lat="44.03644" lon="3.64914">
        <ele>710.5515137</ele>
        <time>2012-10-09T11:46:23Z</time>
      </trkpt>
      <trkpt lat="44.03657" lon="3.64975">
        <ele>717.7614746</ele>
        <time>2012-10-09T11:49:55Z</time>
      </trkpt>
      <trkpt lat="44.03603" lon="3.64996">
        <ele>719.2036133</ele>
        <time>2012-10-09T11:51:56Z</time>
      </trkpt>
      <trkpt lat="44.03531" lon="3.64933">
        <ele>712.4741211</ele>
        <time>2012-10-09T11:53:36Z</time>
      </trkpt>
      <trkpt lat="44.03482" lon="3.6484">
        <ele>698.0544434</ele>
        <time>2012-10-09T11:55:36Z</time>
      </trkpt>
      <trkpt lat="44.03506" lon="3.64783">
        <ele>674.0214844</ele>
        <time>2012-10-09T11:58:38Z</time>
      </trkpt>
      <trkpt lat="44.03524" lon="3.64694">
        <ele>647.5852051</ele>
        <time>2012-10-09T12:01:05Z</time>
      </trkpt>
      <trkpt lat="44.03543" lon="3.64598">
        <ele>630.2814941</ele>
        <time>2012-10-09T12:02:51Z</time>
      </trkpt>
      <trkpt lat="44.03525" lon="3.64565">
        <ele>615.3811035</ele>
        <time>2012-10-09T12:04:29Z</time>
      </trkpt>
      <trkpt lat="44.03444" lon="3.64647">
        <ele>612.9777832</ele>
        <time>2012-10-09T12:06:02Z</time>
      </trkpt>
      <trkpt lat="44.03365" lon="3.6469">
        <ele>602.8837891</ele>
        <time>2012-10-09T12:10:03Z</time>
      </trkpt>
      <trkpt lat="44.03289" lon="3.64713">
        <ele>595.1933594</ele>
        <time>2012-10-09T12:11:46Z</time>
      </trkpt>
      <trkpt lat="44.03218" lon="3.64675">
        <ele>593.270752</ele>
        <time>2012-10-09T12:13:29Z</time>
      </trkpt>
      <trkpt lat="44.03143" lon="3.64698">
        <ele>593.270752</ele>
        <time>2012-10-09T12:15:23Z</time>
      </trkpt>
      <trkpt lat="44.03111" lon="3.64761">
        <ele>579.331543</ele>
        <time>2012-10-09T12:17:14Z</time>
      </trkpt>
      <trkpt lat="44.03039" lon="3.64774">
        <ele>566.3537598</ele>
        <time>2012-10-09T12:19:02Z</time>
      </trkpt>
      <trkpt lat="44.02972" lon="3.64756">
        <ele>557.7021484</ele>
        <time>2012-10-09T12:20:46Z</time>
      </trkpt>
      <trkpt lat="44.03024" lon="3.64715">
        <ele>553.3759766</ele>
        <time>2012-10-09T12:23:11Z</time>
      </trkpt>
      <trkpt lat="44.03022" lon="3.64596">
        <ele>549.5307617</ele>
        <time>2012-10-09T12:24:44Z</time>
      </trkpt>
      <trkpt lat="44.03082" lon="3.64542">
        <ele>543.2821045</ele>
        <time>2012-10-09T12:25:52Z</time>
      </trkpt>
      <trkpt lat="44.03161" lon="3.64524">
        <ele>540.3983154</ele>
        <time>2012-10-09T12:27:11Z</time>
      </trkpt>
      <trkpt lat="44.03234" lon="3.64527">
        <ele>528.8625488</ele>
        <time>2012-10-09T12:28:43Z</time>
      </trkpt>
      <trkpt lat="44.03293" lon="3.64551">
        <ele>527.4204102</ele>
        <time>2012-10-09T12:29:52Z</time>
      </trkpt>
      <trkpt lat="44.03347" lon="3.64498">
        <ele>515.4040527</ele>
        <time>2012-10-09T12:31:20Z</time>
      </trkpt>
      <trkpt lat="44.03402" lon="3.64441">
        <ele>511.5587158</ele>
        <time>2012-10-09T12:32:42Z</time>
      </trkpt>
      <trkpt lat="44.03396" lon="3.64319">
        <ele>509.6361084</ele>
        <time>2012-10-09T12:34:42Z</time>
      </trkpt>
      <trkpt lat="44.03446" lon="3.64232">
        <ele>505.7908936</ele>
        <time>2012-10-09T12:35:51Z</time>
      </trkpt>
      <trkpt lat="44.03476" lon="3.6414">
        <ele>505.7908936</ele>
        <time>2012-10-09T12:37:03Z</time>
      </trkpt>
      <trkpt lat="44.03452" lon="3.64031">
        <ele>497.6196289</ele>
        <time>2012-10-09T12:41:17Z</time>
      </trkpt>
      <trkpt lat="44.03432" lon="3.63961">
        <ele>485.6030273</ele>
        <time>2012-10-09T12:42:56Z</time>
      </trkpt>
      <trkpt lat="44.03444" lon="3.63908">
        <ele>479.3544922</ele>
        <time>2012-10-09T12:46:40Z</time>
      </trkpt>
      <trkpt lat="44.03435" lon="3.63875">
        <ele>477.4318848</ele>
        <time>2012-10-09T12:57:13Z</time>
      </trkpt>
      <trkpt lat="44.03375" lon="3.63864">
        <ele>475.9898682</ele>
        <time>2012-10-09T12:58:31Z</time>
      </trkpt>
      <trkpt lat="44.03371" lon="3.63824">
        <ele>486.0837402</ele>
        <time>2012-10-09T13:00:07Z</time>
      </trkpt>
      <trkpt lat="44.03331" lon="3.63739">
        <ele>495.6968994</ele>
        <time>2012-10-09T13:01:20Z</time>
      </trkpt>
      <trkpt lat="44.0327" lon="3.6369">
        <ele>502.4261475</ele>
        <time>2012-10-09T13:02:28Z</time>
      </trkpt>
      <trkpt lat="44.03205" lon="3.63653">
        <ele>510.59729</ele>
        <time>2012-10-09T13:03:53Z</time>
      </trkpt>
      <trkpt lat="44.03136" lon="3.6362">
        <ele>522.1331787</ele>
        <time>2012-10-09T13:05:29Z</time>
      </trkpt>
      <trkpt lat="44.03072" lon="3.63601">
        <ele>532.7077637</ele>
        <time>2012-10-09T13:07:04Z</time>
      </trkpt>
      <trkpt lat="44.03007" lon="3.63561">
        <ele>533.6689453</ele>
        <time>2012-10-09T13:08:29Z</time>
      </trkpt>
      <trkpt lat="44.02956" lon="3.63531">
        <ele>520.2105713</ele>
        <time>2012-10-09T13:10:31Z</time>
      </trkpt>
      <trkpt lat="44.0289" lon="3.63566">
        <ele>511.5587158</ele>
        <time>2012-10-09T13:11:50Z</time>
      </trkpt>
      <trkpt lat="44.02823" lon="3.63532">
        <ele>502.4261475</ele>
        <time>2012-10-09T13:12:56Z</time>
      </trkpt>
      <trkpt lat="44.02755" lon="3.63499">
        <ele>494.7355957</ele>
        <time>2012-10-09T13:14:09Z</time>
      </trkpt>
      <trkpt lat="44.02761" lon="3.6345">
        <ele>483.6804199</ele>
        <time>2012-10-09T13:15:47Z</time>
      </trkpt>
      <trkpt lat="44.02691" lon="3.6343">
        <ele>472.6253662</ele>
        <time>2012-10-09T13:17:06Z</time>
      </trkpt>
      <trkpt lat="44.02707" lon="3.63374">
        <ele>462.0507813</ele>
        <time>2012-10-09T13:18:11Z</time>
      </trkpt>
      <trkpt lat="44.02761" lon="3.6331">
        <ele>458.2055664</ele>
        <time>2012-10-09T13:19:32Z</time>
      </trkpt>
      <trkpt lat="44.02795" lon="3.63259">
        <ele>450.5150146</ele>
        <time>2012-10-09T13:20:40Z</time>
      </trkpt>
      <trkpt lat="44.0278" lon="3.63217">
        <ele>442.3438721</ele>
        <time>2012-10-09T13:21:53Z</time>
      </trkpt>
      <trkpt lat="44.02715" lon="3.63175">
        <ele>435.614502</ele>
        <time>2012-10-09T13:23:02Z</time>
      </trkpt>
      <trkpt lat="44.02644" lon="3.63153">
        <ele>429.3659668</ele>
        <time>2012-10-09T13:24:05Z</time>
      </trkpt>
      <trkpt lat="44.02612" lon="3.63216">
        <ele>427.4433594</ele>
        <time>2012-10-09T13:26:13Z</time>
      </trkpt>
      <trkpt lat="44.02557" lon="3.63258">
        <ele>425.520752</ele>
        <time>2012-10-09T13:27:15Z</time>
      </trkpt>
      <trkpt lat="44.02545" lon="3.63356">
        <ele>430.8079834</ele>
        <time>2012-10-09T13:28:52Z</time>
      </trkpt>
      <trkpt lat="44.02501" lon="3.63434">
        <ele>426.9627686</ele>
        <time>2012-10-09T13:30:20Z</time>
      </trkpt>
      <trkpt lat="44.02476" lon="3.63521">
        <ele>426.0013428</ele>
        <time>2012-10-09T13:31:42Z</time>
      </trkpt>
      <trkpt lat="44.02493" lon="3.63612">
        <ele>423.5980225</ele>
        <time>2012-10-09T13:32:58Z</time>
      </trkpt>
      <trkpt lat="44.02482" lon="3.63702">
        <ele>414.946167</ele>
        <time>2012-10-09T13:34:29Z</time>
      </trkpt>
      <trkpt lat="44.02456" lon="3.63783">
        <ele>399.0843506</ele>
        <time>2012-10-09T13:36:20Z</time>
      </trkpt>
      <trkpt lat="44.02413" lon="3.63863">
        <ele>388.5100098</ele>
        <time>2012-10-09T13:38:00Z</time>
      </trkpt>
      <trkpt lat="44.0236" lon="3.63897">
        <ele>380.819458</ele>
        <time>2012-10-09T13:39:24Z</time>
      </trkpt>
      <trkpt lat="44.02351" lon="3.64002">
        <ele>362.0737305</ele>
        <time>2012-10-09T13:41:15Z</time>
      </trkpt>
      <trkpt lat="44.02324" lon="3.6409">
        <ele>353.421875</ele>
        <time>2012-10-09T13:42:38Z</time>
      </trkpt>
      <trkpt lat="44.0227" lon="3.64141">
        <ele>339.482666</ele>
        <time>2012-10-09T13:51:13Z</time>
      </trkpt>
      <trkpt lat="44.02195" lon="3.64161">
        <ele>326.0241699</ele>
        <time>2012-10-09T13:52:39Z</time>
      </trkpt>
      <trkpt lat="44.0213" lon="3.64151">
        <ele>309.6818848</ele>
        <time>2012-10-09T13:55:10Z</time>
      </trkpt>
      <trkpt lat="44.02059" lon="3.64169">
        <ele>305.355957</ele>
        <time>2012-10-09T13:56:30Z</time>
      </trkpt>
      <trkpt lat="44.02009" lon="3.64223">
        <ele>295.2619629</ele>
        <time>2012-10-09T13:58:06Z</time>
      </trkpt>
      <trkpt lat="44.01967" lon="3.64242">
        <ele>286.6102295</ele>
        <time>2012-10-09T13:59:51Z</time>
      </trkpt>
      <trkpt lat="44.01922" lon="3.64303">
        <ele>286.1295166</ele>
        <time>2012-10-09T14:01:31Z</time>
      </trkpt>
      <trkpt lat="44.01852" lon="3.64294">
        <ele>294.7813721</ele>
        <time>2012-10-09T14:03:00Z</time>
      </trkpt>
      <trkpt lat="44.01779" lon="3.6429">
        <ele>295.7426758</ele>
        <time>2012-10-09T14:04:14Z</time>
      </trkpt>
      <trkpt lat="44.0171" lon="3.64322">
        <ele>292.3781738</ele>
        <time>2012-10-09T14:05:27Z</time>
      </trkpt>
      <trkpt lat="44.0167" lon="3.64406">
        <ele>289.0135498</ele>
        <time>2012-10-09T14:06:35Z</time>
      </trkpt>
      <trkpt lat="44.01621" lon="3.64477">
        <ele>284.2069092</ele>
        <time>2012-10-09T14:07:41Z</time>
      </trkpt>
      <trkpt lat="44.0156" lon="3.64523">
        <ele>278.9196777</ele>
        <time>2012-10-09T14:08:58Z</time>
      </trkpt>
      <trkpt lat="44.01496" lon="3.64558">
        <ele>274.1130371</ele>
        <time>2012-10-09T14:10:05Z</time>
      </trkpt>
      <trkpt lat="44.01431" lon="3.64565">
        <ele>270.7484131</ele>
        <time>2012-10-09T14:11:09Z</time>
      </trkpt>
      <trkpt lat="44.0136" lon="3.64535">
        <ele>266.4224854</ele>
        <time>2012-10-09T14:12:13Z</time>
      </trkpt>
      <trkpt lat="44.01291" lon="3.64518">
        <ele>267.3839111</ele>
        <time>2012-10-09T14:13:19Z</time>
      </trkpt>
      <trkpt lat="44.01248" lon="3.64598">
        <ele>267.3839111</ele>
        <time>2012-10-09T14:14:21Z</time>
      </trkpt>
      <trkpt lat="44.01234" lon="3.64693">
        <ele>267.864502</ele>
        <time>2012-10-09T14:15:29Z</time>
      </trkpt>
      <trkpt lat="44.01169" lon="3.64701">
        <ele>265.9418945</ele>
        <time>2012-10-09T14:16:36Z</time>
      </trkpt>
      <trkpt lat="44.01098" lon="3.64715">
        <ele>260.1739502</ele>
        <time>2012-10-09T14:17:42Z</time>
      </trkpt>
      <trkpt lat="44.01026" lon="3.64738">
        <ele>252.0028076</ele>
        <time>2012-10-09T14:19:00Z</time>
      </trkpt>
      <trkpt lat="44.00958" lon="3.64776">
        <ele>247.1960449</ele>
        <time>2012-10-09T14:20:16Z</time>
      </trkpt>
      <trkpt lat="44.00899" lon="3.64806">
        <ele>245.2734375</ele>
        <time>2012-10-09T14:22:54Z</time>
      </trkpt>
    </trkseg>
  </trk>
</gpx>